Amunt
Inicio > meteoXarxa
Fes-te'n soci

METEOXARXA

Vilafranca
Ubicació Ajuntament
Comarca l′Alt Maestrat
Altitud (msnm) 1145
Posició geogràfica 40° 25' 37.20" N, 00° 15' 29.16" W
Model Davis Vantage Pro2
Presa de dades
Font de les dades Valentin Miravet (Ajuntament)
Estadístiques. Resum
Data Temperatura (ºC) Humitat (%) Pressió (hPa) Vent (km/h) Precipit. (mm)
Mínima Mitjana Màxima Mínima Mitjana Màxima Mínima Mitjana Màxima Predom. Mitjana Ràfega màxima Total Dies de pluja
Mínima Mitjana Màxima Mínima Mitjana Màxima
Últimes dades diàries
24-03-2017 -1,3     2,0     5,2 66,0 80,0 94,0 1.011,0 1.013,0 1.015,0 16,0 0,2  
23-03-2017 0,7     4,3     8,0 31,0 60,0 89,0 1.006,0 1.009,0 1.012,0 29,0 0,0  
22-03-2017 4,1     8,0     11,9 26,0 58,0 90,0 1.007,0 1.010,5 1.014,0 35,0 0,0  
21-03-2017 5,1     9,5     13,9 55,0 70,5 86,0 1.011,0 1.012,5 1.014,0 26,0 0,0  
20-03-2017 5,2     10,8     16,3 45,0 61,5 78,0 1.012,0 1.013,5 1.015,0 15,0 0,0  
19-03-2017 5,4     12,2     18,9 27,0 48,5 70,0 1.014,0 1.017,0 1.020,0 15,0 0,0  
18-03-2017 2,4     10,3     18,3 8,0 37,0 66,0 1.019,0 1.021,0 1.023,0 18,0 0,0  
15-03-2017 2,5     7,3     12,2 50,0 70,5 91,0 1.025,0 1.027,0 1.029,0 23,0 0,0  
14-03-2017 3,6     8,2     12,8 61,0 78,5 96,0 1.028,0 1.030,0 1.032,0 19,0 0,0  
13-03-2017 0,3     2,6     5,0 91,0 94,5 98,0 1.013,0 1.021,0 1.029,0 39,0 26,8  
12-03-2017 1,9     8,8     15,7 39,0 66,0 93,0 1.011,0 1.012,5 1.014,0 45,0 8,8  
11-03-2017 11,0     16,0     21,0 20,0 37,5 55,0 1.013,0 1.015,5 1.018,0 31,0 0,0  
10-03-2017 11,7     17,6     23,5 14,0 29,0 44,0 1.016,0 1.019,0 1.022,0 40,0 0,0  
09-03-2017 9,4     16,4     23,4 13,0 32,5 52,0 1.022,0 1.024,5 1.027,0 29,0 0,0  
08-03-2017 6,7     12,2     17,7 25,0 53,5 82,0 1.021,0 1.024,0 1.027,0 47,0 0,0  
07-03-2017 7,1     10,9     14,7 22,0 47,5 73,0 1.018,0 1.019,5 1.021,0 60,0 0,4  
06-03-2017 8,4     11,6     14,7 40,0 61,0 82,0 1.016,0 1.018,5 1.021,0 48,0 0,0  
05-03-2017 0,9     6,7     12,4 57,0 70,5 84,0 1.013,0 1.016,5 1.020,0 34,0 0,0  
04-03-2017 0,8     4,0     7,3 42,0 67,0 92,0 994,0 1.003,0 1.012,0 50,0 0,2  
03-03-2017 2,3     5,8     9,3 73,0 85,0 97,0 995,0 1.005,5 1.016,0 47,0 8,8  
02-03-2017 3,9     8,5     13,1 53,0 71,0 89,0 1.016,0 1.018,0 1.020,0 26,0 0,0  
01-03-2017 2,0     7,0     12,1 51,0 71,5 92,0 1.016,0 1.018,0 1.020,0 21,0 0,0  
28-02-2017 2,7     7,0     11,4 50,0 71,0 92,0 1.009,0 1.012,5 1.016,0 50,0 0,0  
27-02-2017 3,4     8,4     13,4 39,0 66,0 93,0 1.011,0 1.014,5 1.018,0 19,0 0,0  
26-02-2017 2,3     7,3     12,3 43,0 70,0 97,0 1.017,0 1.019,5 1.022,0 18,0 0,0  
25-02-2017 -0,9     5,2     11,3 34,0 65,0 96,0 1.017,0 1.019,5 1.022,0 29,0 0,0  
24-02-2017 2,1     5,2     8,3 60,0 77,5 95,0 1.009,0 1.013,0 1.017,0 48,0 1,0  
23-02-2017 7,2     10,7     14,2 50,0 67,0 84,0 1.011,0 1.015,5 1.020,0 27,0 0,0  
22-02-2017 2,5     7,8     13,2 33,0 52,0 71,0 1.020,0 1.022,5 1.025,0 18,0 0,0  
21-02-2017 -0,7     5,8     12,3 32,0 62,0 92,0 1.024,0 1.025,5 1.027,0 18,0 0,0  
20-02-2017 -0,2     5,0     10,1 46,0 69,5 93,0 1.025,0 1.026,5 1.028,0 16,0 0,0  
19-02-2017 2,5     5,7     8,9 65,0 80,5 96,0 1.021,0 1.024,0 1.027,0 16,0 0,0  
Dades del mes en curs (actualitzades fins l'últim dia disponible)
03/2017 -1,3 4,3 11,7 9,1 5,0 14,0 23,5 8,0 61,4 98,0 994,0 1.016,8 1.032,0   60,0 45,2  
Últimes dades mensuals
02/2017 -0,9 2,2 8,1 6,2 3,8 10,1 14,4 50,5 72,1 95,0 1.009,5 1.018,5 1.031,5 89,0 24,4 7
01/2017 -9,2 -0,4 6,1 3,0 -2,6 6,5 16,7 43,0 70,5 98,5 1.013,0 1.020,9 1.030,0 87,0 60,0 10
12/2016 -0,7 2,1 6,9 5,9 2,4 9,6 17,4 26,5 78,4 97,5 1.015,0 1.027,6 1.036,5 48,0 72,4 6
11/2016 -1,7 4,0 10,9 7,5 5,7 11,1 20,9 39,0 74,1 97,0 1.002,0 1.015,6 1.030,0 66,0 93,2 10
10/2016 4,0 9,0 12,2 13,1 10,8 17,2 24,2 40,5 76,6 94,5 1.001,0 1.016,5 1.029,5 45,0 18,4 8
09/2016 8,1 12,0 19,8 16,2 15,6 20,5 32,2 30,0 69,3 91,0 1.010,5 1.017,1 1.026,5 48,0 71,6 7
08/2016 7,3 13,9 18,4 19,5 15,9 25,0 29,1 52,5 63,1 77,0 1.009,0 1.016,7 1.023,0 47,0 12,8 6
07/2016 6,2 14,6 19,8 20,1 20,1 25,6 32,2 38,0 60,3 79,5 1.010,5 1.015,8 1.021,0 47,0 19,2 6
06/2016 7,4 12,0 17,9 17,0 15,8 22,1 27,4 41,5 61,0 84,5 1.001,0 1.014,5 1.024,0 55,0 129,8 11
05/2016 -0,8 7,2 12,1 11,6 8,7 15,9 22,6 43,0 69,0 99,5 1.005,0 1.013,6 1.023,5 79,0 47,2 9
04/2016 -0,5 4,3 9,1 8,4 6,7 12,5 18,1 50,5 69,1 94,0 1.005,5 1.013,0 1.019,0 74,0 45,6 13
03/2016 -3,4 1,9 7,4 5,7 3,3 9,5 18,7 49,0 69,4 98,5 1.003,0 1.014,4 1.025,0 85,0 37,0 8
02/2016 -7,2 1,7 10,1 5,9 2,3 10,2 16,1 37,5 64,3 87,5 990,5 1.016,6 1.035,0 122,0 15,0 10
Dades de l'any en curs (actualitzades fins l'últim dia disponible)
2017 -9,2 1,8 11,7 5,8 -2,6 9,8 23,5 8,0 68,6 99,0 994,0 1.018,9 1.033,0   89,0 129,6  
Últimes dades anuals
2015 -6,4 7,5 13,4 11,9 13,0 16,2 33,7 56,9 65,7 75,5 1.013,5 1.018,4 1.029,5 116,0 649,2 94